Time;durP1;ratioP1;P1;durP2;ratioP2;P2;SDS_P1;SDS_P2;PMS_P1;PMS_P2;Temp;Humidity;BMP_temperature;BMP_pressure;BME280_temperature;BME280_humidity;BME280_pressure;Samples;Min_cycle;Max_cycle;Signal;HPM_P1;HPM_P2
2022/12/14 20:03:02;;;;;;;;;;;;;;;-2.29;81.76;96705.50;5952698;23;20907;31
2022/12/14 20:05:27;;;;;;;;;;;;;;;-2.35;81.88;96704.00;4852778;29;19979;-64
2022/12/14 20:07:53;;;;;;;;;;;;;;;-2.33;81.42;96715.06;4854506;29;19964;-65
2022/12/14 20:10:18;;;;;;;;;;;;;;;-2.36;80.55;96722.88;4863473;29;19999;-65
2022/12/14 20:12:43;;;;;;;;;;;;;;;-2.48;81.08;96719.09;4860191;29;19926;-63
2022/12/14 20:15:09;;;;;;;;;;;;;;;-2.45;81.12;96726.66;4852424;29;19916;-64
2022/12/14 20:17:34;;;;;;;;;;;;;;;-2.42;81.09;96726.53;4855623;29;19926;-65
2022/12/14 20:19:59;;;;;;;;;;;;;;;-2.37;81.50;96731.50;4858439;29;20004;-64
2022/12/14 20:22:24;;;;;;;;;;;;;;;-2.36;80.65;96733.16;4859261;29;19916;-65
2022/12/14 20:24:49;;;;;;;;;;;;;;;-2.33;81.06;96738.16;4870949;29;19922;-62
2022/12/14 20:27:15;;;;;;;;;;;;;;;-2.32;81.49;96744.97;4860242;29;19916;-64
2022/12/14 20:29:40;;;;;;;;;;;;;;;-2.29;81.62;96749.16;4863329;29;19920;-64
2022/12/14 20:32:05;;;;;;;;;;;;;;;-2.27;81.07;96757.63;4875439;29;19923;-64
2022/12/14 20:34:32;;;;;;;;;;;;;;;-2.30;80.69;96757.75;4862528;29;19951;-65
2022/12/14 20:36:57;;;;;;;;;;;;;;;-2.27;80.78;96760.19;4863208;29;20002;-67
2022/12/14 20:39:22;;;;;;;;;;;;;;;-2.22;80.99;96766.81;4862233;29;20565;-63
2022/12/14 20:41:48;;;;;;;;;;;;;;;-2.27;80.38;96768.75;4861668;29;19960;-64
2022/12/14 20:44:14;;;;;;;;;;;;;;;-2.27;80.23;96768.75;4863276;29;20387;-63
2022/12/14 20:46:41;;;;;;;;;;;;;;;-2.26;80.81;96764.44;4861377;29;19916;-64
2022/12/14 20:49:09;;;;;;;;;;;;;;;-2.32;80.11;96775.78;4861319;29;20349;-64
2022/12/14 20:51:34;;;;;;;;;;;;;;;-2.27;79.60;96771.31;4856071;29;20011;-63
2022/12/14 20:54:00;;;;;;;;;;;;;;;-2.16;80.69;96773.44;4861667;29;20417;-62
2022/12/14 20:56:25;;;;;;;;;;;;;;;-2.07;79.88;96774.78;4875884;29;20376;-64
2022/12/14 20:58:50;;;;;;;;;;;;;;;-2.00;79.55;96776.22;4883602;29;20008;-65
2022/12/14 21:01:15;;;;;;;;;;;;;;;-2.00;78.47;96782.19;4862054;29;20559;-64
2022/12/14 21:03:41;;;;;;;;;;;;;;;-1.98;78.29;96800.13;4862083;29;19919;-64
2022/12/14 21:06:06;;;;;;;;;;;;;;;-2.05;78.07;96794.41;4860028;29;19916;-63
2022/12/14 21:09:00;;;;;;;;;;;;;;;-1.98;78.80;96808.66;4876177;29;19922;-65
2022/12/14 21:14:00;;;;;;;;;;;;;;;-1.80;79.21;96798.53;4869710;29;19926;-64
2022/12/14 21:16:26;;;;;;;;;;;;;;;-1.84;77.82;96791.84;4861228;29;19916;-63
2022/12/14 21:18:51;;;;;;;;;;;;;;;-1.86;78.09;96799.59;4868264;29;19926;-64
2022/12/14 21:21:16;;;;;;;;;;;;;;;-1.89;78.42;96804.91;4862083;29;19912;-64
2022/12/14 21:23:41;;;;;;;;;;;;;;;-1.84;77.58;96812.41;4860328;29;20003;-64
2022/12/14 21:26:06;;;;;;;;;;;;;;;-1.76;78.25;96808.59;4858253;29;20010;-63
2022/12/14 21:28:32;;;;;;;;;;;;;;;-1.73;77.67;96821.31;4861296;29;19994;-65
2022/12/14 21:31:03;;;;;;;;;;;;;;;-1.79;76.92;96808.75;4861535;29;20290;-64
2022/12/14 21:33:29;;;;;;;;;;;;;;;-1.78;77.39;96817.28;4874613;29;19920;-65
2022/12/14 21:35:54;;;;;;;;;;;;;;;-1.82;77.20;96819.16;4861868;29;20300;-64
2022/12/14 21:38:19;;;;;;;;;;;;;;;-1.83;76.71;96826.91;4861112;29;20296;-66
2022/12/14 21:43:35;;;;;;;;;;;;;;;-1.88;78.50;96834.00;4862816;29;20300;-66
2022/12/14 21:46:00;;;;;;;;;;;;;;;-1.53;82.90;96835.09;4860212;29;19916;-66
2022/12/14 21:48:25;;;;;;;;;;;;;;;-1.09;85.77;96838.34;4860936;29;19923;-66
2022/12/14 21:50:50;;;;;;;;;;;;;;;-1.01;77.34;96830.28;4860923;29;20400;-66
2022/12/14 21:53:15;;;;;;;;;;;;;;;-0.90;77.92;96827.22;4860852;29;20377;-66
2022/12/14 21:55:46;;;;;;;;;;;;;;;-0.74;78.63;96817.91;4861243;29;20387;-66
2022/12/14 21:58:15;;;;;;;;;;;;;;;-0.44;80.22;96820.00;4859228;29;19927;-66
2022/12/14 22:00:40;;;;;;;;;;;;;;;0.03;87.30;96815.13;4860578;29;19963;-66
2022/12/14 22:03:05;;;;;;;;;;;;;;;0.00;75.86;96815.31;4860348;29;19920;-66
2022/12/14 22:05:30;;;;;;;;;;;;;;;-0.11;73.04;96809.81;4869873;29;19954;-66
2022/12/14 22:07:55;;;;;;;;;;;;;;;-0.31;71.21;96816.75;4860051;29;19924;-66
2022/12/14 22:10:21;;;;;;;;;;;;;;;-0.52;71.84;96825.47;4860716;29;20122;-66
2022/12/14 22:12:46;;;;;;;;;;;;;;;-0.61;72.34;96834.47;4859413;29;19919;-67
2022/12/14 22:15:11;;;;;;;;;;;;;;;-0.81;73.21;96839.69;4859911;29;19923;-66
2022/12/14 22:17:36;;;;;;;;;;;;;;;-0.83;72.91;96849.19;4860715;29;19916;-66
2022/12/14 22:20:02;;;;;;;;;;;;;;;-1.09;72.92;96850.38;4859355;29;19916;-66
2022/12/14 22:22:27;;;;;;;;;;;;;;;-1.32;72.63;96857.31;4860804;29;19916;-66
2022/12/14 22:24:52;;;;;;;;;;;;;;;-1.48;72.74;96843.44;4860692;29;20435;-66
2022/12/14 22:27:17;;;;;;;;;;;;;;;-1.67;74.11;96839.06;4865377;29;19930;-66
2022/12/14 22:29:42;;;;;;;;;;;;;;;-1.75;74.31;96830.84;4860829;29;19946;-66
2022/12/14 22:32:09;;;;;;;;;;;;;;;-1.76;73.21;96836.03;4858461;29;19916;-66
2022/12/14 22:34:34;;;;;;;;;;;;;;;-1.94;73.84;96842.78;4843766;29;19917;-66
2022/12/14 22:37:00;;;;;;;;;;;;;;;-1.99;74.71;96837.00;4859058;29;20023;-66
2022/12/14 22:39:25;;;;;;;;;;;;;;;-2.16;75.08;96843.63;4861253;29;19951;-66
2022/12/14 22:41:50;;;;;;;;;;;;;;;-2.13;75.78;96840.13;4861641;29;19966;-66
2022/12/14 22:44:16;;;;;;;;;;;;;;;-2.13;75.62;96846.97;4871523;29;19916;-66
2022/12/14 22:46:41;;;;;;;;;;;;;;;-2.09;75.39;96846.81;4879201;29;19916;-66
2022/12/14 22:49:07;;;;;;;;;;;;;;;-2.16;76.10;96843.63;4867384;29;19916;-66
2022/12/14 22:51:32;;;;;;;;;;;;;;;-2.10;76.18;96845.13;4861952;29;19916;-66
2022/12/14 22:53:57;;;;;;;;;;;;;;;-2.08;75.92;96853.59;4866500;29;19963;-66
2022/12/14 22:56:30;;;;;;;;;;;;;;;-2.13;75.51;96855.53;4869019;29;19959;-66
2022/12/14 22:59:01;;;;;;;;;;;;;;;-2.22;74.88;96861.03;4853006;29;19924;-66
2022/12/14 23:01:27;;;;;;;;;;;;;;;-2.20;75.30;96872.91;4873327;29;19923;-66
2022/12/14 23:03:52;;;;;;;;;;;;;;;-2.12;76.56;96869.22;4872748;29;19915;-66
2022/12/14 23:06:17;;;;;;;;;;;;;;;-2.00;76.79;96879.00;4870909;29;20348;-66
